createdAt,value
2019-06-07T00:02:18.778Z,12.60
2019-06-07T00:04:48.598Z,12.60
2019-06-07T00:07:21.723Z,12.60
2019-06-07T00:09:49.109Z,12.50
2019-06-07T00:12:21.401Z,12.50
2019-06-07T00:14:49.619Z,12.40
2019-06-07T00:17:20.233Z,12.40
2019-06-07T00:19:50.180Z,12.30
2019-06-07T00:22:32.394Z,12.30
2019-06-07T00:24:51.257Z,12.20
2019-06-07T00:27:22.631Z,12.20
2019-06-07T00:29:51.773Z,12.20
2019-06-07T00:32:22.032Z,12.20
2019-06-07T00:34:51.866Z,12.20
2019-06-07T00:37:25.128Z,12.10
2019-06-07T00:40:12.723Z,12.10
2019-06-07T00:42:24.227Z,12.00
2019-06-07T00:44:54.033Z,12.00
2019-06-07T00:47:25.510Z,12.00
2019-06-07T00:49:54.632Z,11.90
2019-06-07T00:53:11.513Z,11.90
2019-06-07T00:54:55.381Z,11.90
2019-06-07T00:57:24.943Z,11.90
2019-06-07T00:59:54.552Z,11.90
2019-06-07T01:02:28.182Z,11.80
2019-06-07T01:04:55.131Z,11.80
2019-06-07T01:07:24.648Z,11.80
2019-06-07T01:09:55.167Z,11.80
2019-06-07T01:12:26.855Z,11.70
2019-06-07T01:14:55.685Z,11.80
2019-06-07T01:17:41.018Z,11.70
2019-06-07T01:19:58.976Z,11.70
2019-06-07T01:22:29.358Z,11.70
2019-06-07T01:24:59.108Z,11.80
2019-06-07T01:27:28.828Z,11.70
2019-06-07T01:29:58.547Z,11.80
2019-06-07T01:32:31.641Z,11.80
2019-06-07T01:34:59.062Z,11.80
2019-06-07T01:37:30.232Z,11.80
2019-06-07T01:39:59.640Z,11.70
2019-06-07T01:42:30.854Z,11.70
2019-06-07T01:45:00.181Z,11.60
2019-06-07T01:47:32.226Z,11.50
2019-06-07T01:50:00.674Z,11.50
2019-06-07T01:52:30.130Z,11.50
2019-06-07T01:54:59.576Z,11.40
2019-06-07T01:57:44.760Z,11.40
2019-06-07T02:00:00.112Z,11.40
2019-06-07T02:02:31.751Z,11.40
2019-06-07T02:05:01.041Z,11.30
2019-06-07T02:07:33.222Z,11.30
2019-06-07T02:10:01.649Z,11.30
2019-06-07T02:12:40.227Z,11.30
2019-06-07T02:15:05.237Z,11.20
2019-06-07T02:17:34.668Z,11.20
2019-06-07T02:20:07.098Z,11.20
2019-06-07T02:22:37.767Z,11.10
2019-06-07T02:27:38.910Z,11.10
2019-06-07T02:30:37.239Z,11.10
2019-06-07T02:32:40.565Z,11.10
2019-06-07T02:35:10.554Z,11.10
2019-06-07T02:37:40.005Z,11.10
2019-06-07T02:40:10.379Z,11.10
2019-06-07T02:42:42.579Z,11.10
2019-06-07T02:45:11.287Z,11.10
2019-06-07T02:47:42.043Z,11.10
2019-06-07T02:50:13.496Z,11.10
2019-06-07T02:52:43.707Z,11.10
2019-06-07T02:55:13.887Z,11.10
2019-06-07T02:57:43.460Z,11.10
2019-06-07T03:00:41.246Z,11.10
2019-06-07T03:02:46.710Z,11.10
2019-06-07T03:05:16.226Z,11.10
2019-06-07T03:07:47.490Z,11.10
2019-06-07T03:10:17.012Z,11.00
2019-06-07T03:12:48.783Z,11.00
2019-06-07T03:15:32.784Z,11.00
2019-06-07T03:17:52.759Z,11.00
2019-06-07T03:20:23.854Z,11.00
2019-06-07T03:22:55.222Z,11.00
2019-06-07T03:25:26.191Z,11.00
2019-06-07T03:27:55.799Z,11.00
2019-06-07T03:30:57.887Z,11.00
2019-06-07T03:32:56.316Z,11.00
2019-06-07T03:35:28.458Z,11.00
2019-06-07T03:37:57.151Z,11.00
2019-06-07T03:40:26.765Z,11.00
2019-06-07T03:42:56.163Z,11.00
2019-06-07T03:45:28.608Z,11.00
2019-06-07T03:47:57.759Z,11.00
2019-06-07T03:50:30.487Z,11.00
2019-06-07T03:52:58.275Z,11.00
2019-06-07T03:55:27.851Z,11.00
2019-06-07T03:58:30.951Z,11.00
2019-06-07T04:00:32.516Z,11.00
2019-06-07T04:03:00.124Z,11.00
2019-06-07T04:05:32.144Z,11.00
2019-06-07T04:08:00.593Z,11.00
2019-06-07T04:10:48.647Z,11.00
2019-06-07T04:13:01.039Z,11.00
2019-06-07T04:15:31.285Z,11.00
2019-06-07T04:18:03.892Z,11.00
2019-06-07T04:20:34.564Z,11.00
2019-06-07T04:23:03.829Z,10.90
2019-06-07T04:25:36.808Z,10.90
2019-06-07T04:28:04.487Z,10.90
2019-06-07T04:30:44.462Z,10.90
2019-06-07T04:33:14.663Z,11.00
2019-06-07T04:35:45.269Z,10.90
2019-06-07T04:38:16.103Z,11.00
2019-06-07T04:40:47.248Z,11.00
2019-06-07T04:43:17.823Z,11.00
2019-06-07T04:45:51.429Z,11.10
2019-06-07T04:48:21.658Z,11.20
2019-06-07T04:50:52.650Z,11.20
2019-06-07T04:53:22.096Z,11.30
2019-06-07T04:55:51.599Z,11.40
2019-06-07T04:58:21.053Z,11.40
2019-06-07T05:00:58.430Z,11.50
2019-06-07T05:03:22.728Z,11.60
2019-06-07T05:05:52.222Z,11.70
2019-06-07T05:08:27.986Z,11.70
2019-06-07T05:10:53.892Z,11.80
2019-06-07T05:13:23.335Z,11.80
2019-06-07T05:15:52.774Z,11.80
2019-06-07T05:18:22.252Z,11.90
2019-06-07T05:20:51.684Z,11.90
2019-06-07T05:24:00.264Z,12.00
2019-06-07T05:25:52.223Z,12.10
2019-06-07T05:28:21.661Z,12.10
2019-06-07T05:31:03.915Z,12.20
2019-06-07T05:33:22.184Z,12.30
2019-06-07T05:35:51.639Z,12.30
2019-06-07T05:38:21.068Z,12.30
2019-06-07T05:40:50.544Z,12.30
2019-06-07T05:43:27.660Z,12.40
2019-06-07T05:45:57.331Z,12.40
2019-06-07T05:48:26.959Z,12.50
2019-06-07T05:50:57.643Z,12.50
2019-06-07T05:53:27.761Z,12.40
2019-06-07T05:55:57.188Z,12.40
2019-06-07T05:58:26.630Z,12.50
2019-06-07T06:01:41.766Z,12.60
2019-06-07T06:03:27.771Z,12.70
2019-06-07T06:05:57.219Z,12.90
2019-06-07T06:08:27.142Z,13.00
2019-06-07T06:10:56.634Z,13.00
2019-06-07T06:13:26.050Z,13.00
2019-06-07T06:16:01.659Z,13.10
2019-06-07T06:18:26.547Z,13.10
2019-06-07T06:21:15.681Z,13.30
2019-06-07T06:23:27.157Z,13.40
2019-06-07T06:25:58.202Z,13.50
2019-06-07T06:28:27.655Z,13.60
2019-06-07T06:30:57.106Z,13.70
2019-06-07T06:33:34.433Z,13.80
2019-06-07T06:35:57.615Z,13.80
2019-06-07T06:38:27.044Z,14.00
2019-06-07T06:41:14.264Z,14.10
2019-06-07T06:43:27.592Z,14.20
2019-06-07T06:45:57.027Z,14.20
2019-06-07T06:48:26.483Z,14.20
2019-06-07T06:50:55.937Z,14.20
2019-06-07T06:53:25.394Z,14.20
2019-06-07T06:55:54.828Z,14.10
2019-06-07T06:58:24.269Z,14.00
2019-06-07T07:01:05.997Z,14.00
2019-06-07T07:03:56.805Z,14.10
2019-06-07T07:05:56.763Z,14.20
2019-06-07T07:08:26.274Z,14.20
2019-06-07T07:10:55.800Z,14.20
2019-06-07T07:13:25.248Z,14.20
2019-06-07T07:15:57.874Z,14.30
2019-06-07T07:18:26.299Z,14.30
2019-06-07T07:20:57.456Z,14.40
2019-06-07T07:23:27.291Z,14.50
2019-06-07T07:25:59.643Z,14.50
2019-06-07T07:28:27.911Z,14.60
2019-06-07T07:31:01.199Z,14.70
2019-06-07T07:34:20.744Z,14.90
2019-06-07T07:36:28.129Z,15.00
2019-06-07T07:38:32.784Z,15.20
2019-06-07T07:41:13.823Z,15.30
2019-06-07T07:43:33.413Z,15.30
2019-06-07T07:46:19.611Z,15.50
2019-06-07T07:48:35.539Z,15.50
2019-06-07T07:51:05.370Z,15.50
2019-06-07T07:53:48.454Z,15.50
2019-06-07T07:56:06.216Z,15.60
2019-06-07T07:58:36.249Z,15.60
2019-06-07T08:01:10.395Z,15.60
2019-06-07T08:03:36.926Z,15.70
2019-06-07T08:06:06.443Z,15.70
2019-06-07T08:08:36.127Z,15.70
2019-06-07T08:11:05.683Z,15.70
2019-06-07T08:13:37.427Z,15.80
2019-06-07T08:16:12.247Z,15.80
2019-06-07T08:18:37.391Z,15.80
2019-06-07T08:21:23.898Z,15.90
2019-06-07T08:23:37.962Z,15.90
2019-06-07T08:26:07.616Z,15.90
2019-06-07T08:28:37.333Z,15.90
2019-06-07T08:31:08.103Z,16.00
2019-06-07T08:33:37.691Z,16.10
2019-06-07T08:36:21.898Z,16.10
2019-06-07T08:38:47.568Z,16.10
2019-06-07T08:41:11.688Z,16.10
2019-06-07T08:43:40.366Z,16.00
2019-06-07T08:46:09.824Z,16.00
2019-06-07T08:48:39.271Z,16.00
2019-06-07T08:51:08.915Z,16.10
2019-06-07T08:53:38.617Z,16.30
2019-06-07T08:56:11.078Z,16.30
2019-06-07T08:58:39.494Z,16.40
2019-06-07T09:01:09.350Z,16.40
2019-06-07T09:03:39.185Z,16.50
2019-06-07T09:06:53.823Z,16.60
2019-06-07T09:08:39.919Z,16.70
2019-06-07T09:11:11.135Z,16.80
2019-06-07T09:13:40.527Z,16.90
2019-06-07T09:16:10.287Z,17.00
2019-06-07T09:18:43.542Z,17.10
2019-06-07T09:21:12.011Z,17.10
2019-06-07T09:23:41.536Z,17.30
2019-06-07T09:26:18.329Z,17.30
2019-06-07T09:28:42.416Z,17.40
2019-06-07T09:31:12.639Z,17.40
2019-06-07T09:33:43.764Z,17.40
2019-06-07T09:36:13.730Z,17.50
2019-06-07T09:38:45.704Z,17.60
2019-06-07T09:41:15.215Z,17.80
2019-06-07T09:44:01.589Z,18.00
2019-06-07T09:46:16.821Z,18.10
2019-06-07T09:49:10.589Z,18.30
2019-06-07T09:51:20.403Z,18.50
2019-06-07T09:53:50.123Z,18.60
2019-06-07T09:56:19.629Z,18.70
2019-06-07T09:58:52.513Z,18.90
2019-06-07T10:01:20.151Z,19.00
2019-06-07T10:03:49.599Z,19.10
2019-06-07T10:06:19.071Z,19.10
2019-06-07T10:11:19.750Z,19.20
2019-06-07T10:13:49.207Z,19.30
2019-06-07T10:16:18.654Z,19.40
2019-06-07T10:18:48.237Z,19.50
2019-06-07T10:21:17.617Z,19.70
2019-06-07T10:23:47.073Z,19.80
2019-06-07T10:26:18.064Z,19.80
2019-06-07T10:28:47.607Z,19.90
2019-06-07T10:31:17.057Z,20.00
2019-06-07T10:33:46.502Z,20.00
2019-06-07T10:36:16.015Z,20.10
2019-06-07T10:38:45.815Z,20.20
2019-06-07T10:41:15.275Z,20.20
2019-06-07T10:43:44.723Z,20.20
2019-06-07T10:46:14.211Z,20.30
2019-06-07T10:48:43.638Z,20.30
2019-06-07T10:51:14.827Z,20.40
2019-06-07T10:53:44.176Z,20.50
2019-06-07T10:56:13.626Z,20.60
2019-06-07T10:58:43.340Z,20.70
2019-06-07T11:01:14.327Z,20.80
2019-06-07T11:03:43.940Z,21.10
2019-06-07T11:06:14.462Z,21.30
2019-06-07T11:08:43.997Z,21.50
2019-06-07T11:11:14.498Z,21.60
2019-06-07T11:13:44.206Z,21.60
2019-06-07T11:16:15.520Z,21.50
2019-06-07T11:18:44.864Z,21.40
2019-06-07T11:21:14.456Z,21.20
2019-06-07T11:23:43.958Z,21.00
2019-06-07T11:26:14.463Z,21.00
2019-06-07T11:28:43.929Z,21.00
2019-06-07T11:31:14.920Z,21.00
2019-06-07T11:33:44.549Z,20.90
2019-06-07T11:36:15.247Z,20.80
2019-06-07T11:38:44.980Z,20.80
2019-06-07T11:41:15.699Z,20.90
2019-06-07T11:43:46.940Z,21.10
2019-06-07T11:46:17.279Z,21.10
2019-06-07T11:48:46.716Z,21.20
2019-06-07T11:51:16.160Z,21.20
2019-06-07T11:53:45.618Z,21.10
2019-06-07T11:56:16.025Z,21.00
2019-06-07T11:58:45.575Z,21.00
2019-06-07T12:01:16.800Z,21.00
2019-06-07T12:03:46.115Z,20.80
2019-06-07T12:06:16.399Z,20.80
2019-06-07T12:08:46.028Z,20.80
2019-06-07T12:11:16.539Z,20.80
2019-06-07T12:13:46.372Z,20.80
2019-06-07T12:16:17.251Z,20.80
2019-06-07T12:18:47.003Z,20.70
2019-06-07T12:21:17.954Z,20.60
2019-06-07T12:23:47.684Z,20.60
2019-06-07T12:26:18.479Z,20.40
2019-06-07T12:28:49.339Z,20.50
2019-06-07T12:31:19.236Z,20.40
2019-06-07T12:33:49.253Z,20.30
2019-06-07T12:36:19.944Z,20.30
2019-06-07T12:38:49.693Z,20.10
2019-06-07T12:41:20.282Z,20.00
2019-06-07T12:43:49.775Z,19.90
2019-06-07T12:46:23.025Z,19.80
2019-06-07T12:48:50.359Z,19.70
2019-06-07T12:51:19.818Z,19.70
2019-06-07T12:53:49.292Z,19.60
2019-06-07T12:56:19.795Z,19.60
2019-06-07T12:58:49.358Z,19.40
2019-06-07T13:01:20.800Z,19.10
2019-06-07T13:03:50.051Z,18.80
2019-06-07T13:06:19.570Z,18.60
2019-06-07T13:08:49.005Z,18.50
2019-06-07T13:11:24.588Z,18.30
2019-06-07T13:13:49.554Z,18.20
2019-06-07T13:16:20.083Z,18.20
2019-06-07T13:18:49.617Z,18.10
2019-06-07T13:21:20.279Z,18.00
2019-06-07T13:23:50.003Z,17.90
2019-06-07T13:26:20.597Z,18.10
2019-06-07T13:28:50.095Z,18.20
2019-06-07T13:31:21.084Z,18.10
2019-06-07T13:33:51.071Z,17.90
2019-06-07T13:36:20.508Z,17.90
2019-06-07T13:38:49.955Z,17.80
2019-06-07T13:41:35.204Z,17.70
2019-06-07T13:43:51.700Z,17.70
2019-06-07T13:46:21.292Z,17.60
2019-06-07T13:48:50.731Z,17.50
2019-06-07T13:51:21.166Z,17.60
2019-06-07T13:53:51.240Z,17.50
2019-06-07T13:56:21.804Z,17.60
2019-06-07T13:58:51.550Z,17.60
2019-06-07T14:01:22.362Z,17.70
2019-06-07T14:03:51.980Z,17.80
2019-06-07T14:06:21.423Z,17.90
2019-06-07T14:08:50.882Z,18.00
2019-06-07T14:11:21.420Z,18.00
2019-06-07T14:13:51.111Z,18.00
2019-06-07T14:16:22.125Z,18.10
2019-06-07T14:18:51.719Z,18.00
2019-06-07T14:21:22.466Z,17.70
2019-06-07T14:23:52.160Z,17.50
2019-06-07T14:26:21.712Z,17.30
2019-06-07T14:28:51.244Z,17.30
2019-06-07T14:31:28.049Z,17.30
2019-06-07T14:34:19.890Z,17.40
2019-06-07T14:36:49.339Z,17.50
2019-06-07T14:39:18.802Z,17.40
2019-06-07T14:41:48.243Z,17.30
2019-06-07T14:44:17.683Z,17.20
2019-06-07T14:46:47.122Z,17.10
2019-06-07T14:49:16.614Z,17.20
2019-06-07T14:51:46.119Z,17.30
2019-06-07T14:54:15.562Z,17.30
2019-06-07T14:56:44.996Z,17.30
2019-06-07T14:59:14.497Z,17.10
2019-06-07T15:01:44.013Z,16.90
2019-06-07T15:04:13.466Z,16.80
2019-06-07T15:06:42.908Z,16.80
2019-06-07T15:09:12.368Z,16.80
2019-06-07T15:11:41.816Z,16.90
2019-06-07T15:14:11.260Z,17.10
2019-06-07T15:16:40.713Z,17.10
2019-06-07T15:19:10.154Z,17.20
2019-06-07T15:21:40.739Z,17.10
2019-06-07T15:24:10.171Z,17.10
2019-06-07T15:26:39.631Z,16.90
2019-06-07T15:29:09.087Z,16.90
2019-06-07T15:31:38.685Z,17.10
2019-06-07T15:34:08.252Z,17.10
2019-06-07T15:36:38.700Z,17.30
2019-06-07T15:39:08.803Z,17.30
2019-06-07T15:41:39.799Z,17.20
2019-06-07T15:44:09.794Z,17.30
2019-06-07T15:46:40.163Z,17.40
2019-06-07T15:49:09.903Z,17.30
2019-06-07T15:51:40.851Z,17.10
2019-06-07T15:54:10.688Z,17.10
2019-06-07T15:56:41.369Z,17.10
2019-06-07T15:59:10.904Z,17.10
2019-06-07T16:01:41.916Z,17.10
2019-06-07T16:04:11.459Z,17.30
2019-06-07T16:06:43.188Z,17.40
2019-06-07T16:09:12.113Z,17.50
2019-06-07T16:11:43.233Z,17.50
2019-06-07T16:14:12.651Z,17.30
2019-06-07T16:16:43.423Z,17.20
2019-06-07T16:19:14.032Z,18.00
2019-06-07T16:21:43.743Z,18.40
2019-06-07T16:24:13.317Z,19.40
2019-06-07T16:26:42.757Z,19.60
2019-06-07T16:29:12.222Z,19.60
2019-06-07T16:31:42.740Z,19.50
2019-06-07T16:34:12.314Z,19.50
2019-06-07T16:36:42.265Z,19.70
2019-06-07T16:39:11.843Z,20.90
2019-06-07T16:41:42.720Z,22.30
2019-06-07T16:44:12.555Z,22.70
2019-06-07T16:46:42.873Z,23.00
2019-06-07T16:49:12.450Z,22.50
2019-06-07T16:51:43.166Z,22.00
2019-06-07T16:54:12.884Z,21.90
2019-06-07T16:56:46.286Z,22.20
2019-06-07T16:59:13.419Z,20.80
2019-06-07T17:01:43.144Z,20.00
2019-06-07T17:04:12.899Z,20.80
2019-06-07T17:06:43.428Z,21.00
2019-06-07T17:09:13.303Z,21.20
2019-06-07T17:11:42.774Z,20.90
2019-06-07T17:14:12.226Z,22.20
2019-06-07T17:16:43.056Z,22.80
2019-06-07T17:19:12.953Z,23.70
2019-06-07T17:21:43.343Z,24.00
2019-06-07T17:24:12.858Z,24.00
2019-06-07T17:26:43.425Z,23.60
2019-06-07T17:29:13.007Z,23.30
2019-06-07T17:31:42.464Z,23.50
2019-06-07T17:34:11.971Z,24.30
2019-06-07T17:36:42.535Z,22.80
2019-06-07T17:39:11.983Z,21.70
2019-06-07T17:41:54.796Z,20.60
2019-06-07T17:44:13.280Z,20.10
2019-06-07T17:46:43.463Z,19.90
2019-06-07T17:49:13.130Z,19.50
2019-06-07T17:51:44.125Z,19.40
2019-06-07T17:54:13.854Z,19.50
2019-06-07T17:56:44.483Z,19.90
2019-06-07T17:59:14.092Z,19.90
2019-06-07T18:02:05.790Z,20.50
2019-06-07T18:04:14.590Z,20.50
2019-06-07T18:06:45.433Z,20.00
2019-06-07T18:09:15.185Z,20.70
2019-06-07T18:11:45.755Z,21.20
2019-06-07T18:14:15.455Z,21.70
2019-06-07T18:16:46.445Z,21.90
2019-06-07T18:19:16.291Z,21.90
2019-06-07T18:21:46.964Z,22.60
2019-06-07T18:24:17.619Z,22.30
2019-06-07T18:26:48.349Z,21.60
2019-06-07T18:29:17.940Z,22.10
2019-06-07T18:31:48.616Z,22.40
2019-06-07T18:34:19.496Z,22.20
2019-06-07T18:36:49.023Z,22.70
2019-06-07T18:39:18.485Z,22.40
2019-06-07T18:41:49.022Z,22.30
2019-06-07T18:44:21.809Z,21.90
2019-06-07T18:46:50.148Z,21.20
2019-06-07T18:49:19.725Z,20.70
2019-06-07T18:51:52.364Z,20.10
2019-06-07T18:54:21.945Z,19.60
2019-06-07T18:56:51.417Z,19.80
2019-06-07T18:59:20.851Z,19.60
2019-06-07T19:01:51.378Z,19.40
2019-06-07T19:04:22.103Z,19.40
2019-06-07T19:06:52.237Z,18.90
2019-06-07T19:09:21.787Z,18.70
2019-06-07T19:11:51.244Z,18.40
2019-06-07T19:14:36.087Z,18.40
2019-06-07T19:16:52.304Z,17.90
2019-06-07T19:19:22.986Z,17.70
2019-06-07T19:21:53.886Z,17.60
2019-06-07T19:24:23.451Z,17.60
2019-06-07T19:26:52.903Z,17.80
2019-06-07T19:29:22.363Z,17.60
2019-06-07T19:31:52.929Z,17.60
2019-06-07T19:34:22.447Z,17.30
2019-06-07T19:36:51.903Z,17.30
2019-06-07T19:39:21.378Z,17.20
2019-06-07T19:41:51.842Z,17.20
2019-06-07T19:44:21.294Z,17.10
2019-06-07T19:46:50.757Z,17.00
2019-06-07T19:49:20.188Z,17.20
2019-06-07T19:51:49.638Z,17.20
2019-06-07T19:54:19.084Z,17.20
2019-06-07T19:56:48.613Z,17.30
2019-06-07T19:59:18.051Z,17.20
2019-06-07T20:01:47.517Z,17.50
2019-06-07T20:04:16.949Z,17.60
2019-06-07T20:06:46.382Z,17.60
2019-06-07T20:09:15.778Z,17.40
2019-06-07T20:11:45.217Z,17.50
2019-06-07T20:14:14.646Z,17.40
2019-06-07T20:16:44.134Z,17.50
2019-06-07T20:19:13.564Z,17.40
2019-06-07T20:21:42.998Z,17.10
2019-06-07T20:24:26.418Z,17.10
2019-06-07T20:26:43.504Z,16.90
2019-06-07T20:29:25.452Z,17.00
2019-06-07T20:31:44.039Z,16.80
2019-06-07T20:34:13.494Z,17.00
2019-06-07T20:36:45.865Z,17.10
2019-06-07T20:39:14.011Z,17.10
2019-06-07T20:41:43.580Z,17.00
2019-06-07T20:44:13.048Z,16.90
2019-06-07T20:46:42.484Z,17.00
2019-06-07T20:49:13.026Z,16.60
2019-06-07T20:51:42.469Z,16.20
2019-06-07T20:54:11.981Z,16.00
2019-06-07T20:56:41.444Z,15.80
2019-06-07T20:59:10.909Z,15.80
2019-06-07T21:01:42.751Z,15.80
2019-06-07T21:04:11.529Z,15.80
2019-06-07T21:06:40.970Z,15.70
2019-06-07T21:09:10.410Z,15.70
2019-06-07T21:11:39.870Z,15.60
2019-06-07T21:14:10.301Z,15.60
2019-06-07T21:16:40.038Z,15.60
2019-06-07T21:19:10.461Z,15.70
2019-06-07T21:21:39.923Z,15.70
2019-06-07T21:24:09.435Z,15.40
2019-06-07T21:26:38.883Z,15.20
2019-06-07T21:29:09.343Z,15.00
2019-06-07T21:31:38.775Z,14.90
2019-06-07T21:34:11.974Z,14.90
2019-06-07T21:36:39.665Z,14.90
2019-06-07T21:39:10.268Z,15.00
2019-06-07T21:41:39.946Z,15.10
2019-06-07T21:44:10.357Z,15.10
2019-06-07T21:46:40.081Z,15.10
2019-06-07T21:49:10.552Z,15.20
2019-06-07T21:51:40.165Z,15.20
2019-06-07T21:54:12.805Z,15.20
2019-06-07T21:56:40.753Z,15.20
2019-06-07T21:59:11.225Z,15.20
2019-06-07T22:01:40.893Z,15.20
2019-06-07T22:04:11.624Z,15.20
2019-06-07T22:06:41.179Z,15.20
2019-06-07T22:09:12.264Z,15.10
2019-06-07T22:11:41.972Z,15.10
2019-06-07T22:14:12.538Z,15.10
2019-06-07T22:16:42.075Z,15.10
2019-06-07T22:19:12.741Z,15.00
2019-06-07T22:21:42.196Z,14.90
2019-06-07T22:24:12.956Z,14.90
2019-06-07T22:26:42.704Z,14.80
2019-06-07T22:29:12.394Z,14.90
2019-06-07T22:31:41.891Z,14.90
2019-06-07T22:34:12.705Z,14.90
2019-06-07T22:36:42.280Z,14.90
2019-06-07T22:39:11.794Z,14.90
2019-06-07T22:41:41.660Z,14.80
2019-06-07T22:44:11.171Z,14.80
2019-06-07T22:46:40.626Z,14.90
2019-06-07T22:49:11.281Z,14.80
2019-06-07T22:51:40.927Z,14.90
2019-06-07T22:54:11.610Z,14.90
2019-06-07T22:56:42.938Z,14.80
2019-06-07T22:59:15.564Z,14.80
2019-06-07T23:01:43.438Z,14.70
2019-06-07T23:04:12.903Z,14.70
2019-06-07T23:06:42.348Z,14.70
2019-06-07T23:09:12.861Z,14.70
2019-06-07T23:11:42.510Z,14.60
2019-06-07T23:14:13.395Z,14.60
2019-06-07T23:16:54.983Z,14.60
2019-06-07T23:19:13.960Z,14.60
2019-06-07T23:21:43.432Z,14.70
2019-06-07T23:24:14.056Z,14.70
2019-06-07T23:26:43.823Z,14.70
2019-06-07T23:29:14.494Z,14.80
2019-06-07T23:31:44.226Z,14.90
2019-06-07T23:34:14.696Z,14.90
2019-06-07T23:36:44.330Z,14.90
2019-06-07T23:39:15.278Z,14.80
2019-06-07T23:41:44.852Z,14.70
2019-06-07T23:44:15.337Z,14.70
2019-06-07T23:46:44.915Z,14.60
2019-06-07T23:49:15.477Z,14.70
2019-06-07T23:51:46.236Z,14.70
2019-06-07T23:54:15.738Z,14.70
2019-06-07T23:56:45.180Z,14.80
2019-06-07T23:59:16.038Z,14.70
